Time;durP1;ratioP1;P1;durP2;ratioP2;P2;SDS_P1;SDS_P2;PMS_P1;PMS_P2;Temp;Humidity;BMP_temperature;BMP_pressure;BME280_temperature;BME280_humidity;BME280_pressure;Samples;Min_cycle;Max_cycle;Signal;HPM_P1;HPM_P2
2023/05/30 00:01:09;;;;;;;;;;;16.90;72.40;;;;;;6154235;23;19908;-89
2023/05/30 00:03:35;;;;;;;;;;;17.00;72.50;;;;;;6153232;23;20374;-90
2023/05/30 00:06:01;;;;;;;;;;;17.00;72.60;;;;;;6153735;23;19905;-90
2023/05/30 00:08:27;;;;;;;;;;;17.00;72.70;;;;;;6154202;23;19912;-90
2023/05/30 00:10:52;;;;;;;;;;;17.00;72.80;;;;;;6153853;23;19913;-90
2023/05/30 00:13:19;;;;;;;;;;;17.00;72.90;;;;;;6152783;23;19904;-90
2023/05/30 00:15:47;;;;;;;;;;;17.00;73.00;;;;;;6153084;23;19908;-89
2023/05/30 00:18:12;;;;;;;;;;;17.00;73.10;;;;;;6154016;23;19908;-90
2023/05/30 00:20:39;;;;;;;;;;;17.00;73.20;;;;;;6153491;23;19944;-90
2023/05/30 00:23:05;;;;;;;;;;;17.00;73.30;;;;;;6155361;23;19952;-91
2023/05/30 00:25:32;;;;;;;;;;;17.00;73.40;;;;;;6153680;23;20306;-91
2023/05/30 00:27:58;;;;;;;;;;;17.00;74.20;;;;;;6153418;23;19948;-90
2023/05/30 00:30:25;;;;;;;;;;;17.00;73.50;;;;;;6152713;23;19913;-90
2023/05/30 00:32:51;;;;;;;;;;;17.00;73.60;;;;;;6152524;23;19912;-90
2023/05/30 00:35:16;;;;;;;;;;;17.00;73.60;;;;;;6152894;23;20338;-91
2023/05/30 00:37:42;;;;;;;;;;;17.00;73.70;;;;;;6153619;23;19904;-90
2023/05/30 00:40:08;;;;;;;;;;;17.00;73.80;;;;;;6154040;23;19913;-91
2023/05/30 00:42:33;;;;;;;;;;;17.00;73.80;;;;;;6153678;23;19904;-90
2023/05/30 00:44:59;;;;;;;;;;;17.00;73.90;;;;;;6153473;23;19920;-90
2023/05/30 00:47:25;;;;;;;;;;;17.00;73.90;;;;;;6153741;23;19927;-90
2023/05/30 00:49:51;;;;;;;;;;;17.00;74.00;;;;;;6153518;23;19921;-90
2023/05/30 00:52:17;;;;;;;;;;;17.00;74.00;;;;;;6153577;23;19955;-90
2023/05/30 00:54:45;;;;;;;;;;;16.90;73.90;;;;;;6153984;23;20219;-90
2023/05/30 00:57:10;;;;;;;;;;;17.00;74.00;;;;;;6153235;23;19909;-91
2023/05/30 00:59:36;;;;;;;;;;;17.00;74.00;;;;;;6153480;23;19975;-90
2023/05/30 01:02:02;;;;;;;;;;;16.90;74.00;;;;;;6152828;23;19905;-90
2023/05/30 01:04:28;;;;;;;;;;;16.90;74.00;;;;;;6152561;23;19984;-90
2023/05/30 01:06:53;;;;;;;;;;;16.90;74.00;;;;;;6153040;23;19936;-90
2023/05/30 01:09:19;;;;;;;;;;;16.90;74.00;;;;;;6153456;23;19936;-89
2023/05/30 01:11:45;;;;;;;;;;;16.90;74.10;;;;;;6153262;23;19912;-90
2023/05/30 01:14:10;;;;;;;;;;;16.90;74.10;;;;;;6153574;23;19908;-90
2023/05/30 01:16:47;;;;;;;;;;;16.90;74.10;;;;;;6154489;23;19912;-90
2023/05/30 01:19:32;;;;;;;;;;;16.90;74.10;;;;;;6153399;23;19905;-91
2023/05/30 01:22:16;;;;;;;;;;;16.90;74.20;;;;;;6093665;23;19928;-90
2023/05/30 01:24:44;;;;;;;;;;;16.90;74.90;;;;;;6152119;23;19980;-90
2023/05/30 01:27:29;;;;;;;;;;;16.90;74.20;;;;;;6153713;23;19972;-90
2023/05/30 01:29:56;;;;;;;;;;;16.90;74.00;;;;;;6154033;23;19991;-90
2023/05/30 01:32:22;;;;;;;;;;;16.90;74.20;;;;;;6153149;23;19909;-90
2023/05/30 01:34:48;;;;;;;;;;;16.90;74.20;;;;;;6153377;23;20038;-91
2023/05/30 01:37:13;;;;;;;;;;;16.90;74.30;;;;;;6154613;23;19905;-90
2023/05/30 01:39:39;;;;;;;;;;;16.90;75.10;;;;;;6153522;23;19911;-91
2023/05/30 01:42:16;;;;;;;;;;;16.90;74.30;;;;;;6152707;23;19911;-90
2023/05/30 01:45:02;;;;;;;;;;;16.80;74.30;;;;;;6153483;23;19912;-90
2023/05/30 01:47:44;;;;;;;;;;;16.80;74.40;;;;;;6152518;23;20001;-90
2023/05/30 01:50:16;;;;;;;;;;;16.90;74.50;;;;;;6152859;23;19920;-90
2023/05/30 01:52:43;;;;;;;;;;;16.90;74.40;;;;;;6154194;23;19905;-91
2023/05/30 01:55:10;;;;;;;;;;;16.90;74.50;;;;;;6154799;23;19908;-90
2023/05/30 01:57:39;;;;;;;;;;;16.80;74.50;;;;;;6154747;23;19959;-90
2023/05/30 02:00:05;;;;;;;;;;;16.90;74.60;;;;;;6155547;23;19908;-90
2023/05/30 02:02:31;;;;;;;;;;;16.80;74.60;;;;;;6155510;23;19913;-90
2023/05/30 02:04:57;;;;;;;;;;;16.90;74.60;;;;;;6154587;23;19909;-91
2023/05/30 02:07:22;;;;;;;;;;;16.80;74.60;;;;;;6155207;23;20283;-90
2023/05/30 02:09:48;;;;;;;;;;;16.80;74.60;;;;;;6156438;23;19913;-89
2023/05/30 02:12:13;;;;;;;;;;;16.80;74.60;;;;;;6152783;23;19909;-90
2023/05/30 02:14:39;;;;;;;;;;;16.80;74.70;;;;;;6155134;23;19908;-90
2023/05/30 02:17:05;;;;;;;;;;;16.90;74.80;;;;;;6154525;23;19960;-90
2023/05/30 02:19:30;;;;;;;;;;;16.80;74.70;;;;;;6154994;23;19908;-90
2023/05/30 02:21:56;;;;;;;;;;;16.80;74.80;;;;;;6154922;23;19912;-89
2023/05/30 02:24:22;;;;;;;;;;;16.80;74.80;;;;;;6154600;23;19909;-90
2023/05/30 02:26:48;;;;;;;;;;;16.80;74.80;;;;;;6154341;23;20323;-90
2023/05/30 02:29:13;;;;;;;;;;;16.80;74.80;;;;;;6154993;23;19917;-90
2023/05/30 02:31:39;;;;;;;;;;;16.80;74.90;;;;;;6156707;23;19905;-90
2023/05/30 02:34:04;;;;;;;;;;;16.80;74.90;;;;;;6155036;23;20334;-90
2023/05/30 02:36:32;;;;;;;;;;;16.80;74.90;;;;;;6154878;23;19911;-90
2023/05/30 02:39:03;;;;;;;;;;;16.80;74.90;;;;;;6154728;23;19999;-89
2023/05/30 02:41:29;;;;;;;;;;;16.80;75.00;;;;;;6153838;23;19926;-90
2023/05/30 02:43:54;;;;;;;;;;;16.80;74.90;;;;;;6156404;23;19928;-90
2023/05/30 02:46:20;;;;;;;;;;;16.80;75.10;;;;;;6153914;23;20227;-90
2023/05/30 02:48:45;;;;;;;;;;;16.80;75.00;;;;;;6154809;23;19904;-90
2023/05/30 02:51:11;;;;;;;;;;;16.80;75.10;;;;;;6155090;23;19917;-90
2023/05/30 02:53:37;;;;;;;;;;;16.80;75.10;;;;;;6154647;23;19905;-90
2023/05/30 02:56:02;;;;;;;;;;;16.80;75.10;;;;;;6157319;23;19991;-91
2023/05/30 02:58:28;;;;;;;;;;;16.80;75.20;;;;;;6156431;23;19936;-89
2023/05/30 03:00:53;;;;;;;;;;;16.80;75.10;;;;;;6156284;23;20231;-91
2023/05/30 03:03:21;;;;;;;;;;;16.70;75.10;;;;;;6156191;23;19911;-90
2023/05/30 03:05:49;;;;;;;;;;;16.80;75.10;;;;;;6155567;23;19905;-90
2023/05/30 03:08:14;;;;;;;;;;;16.80;75.20;;;;;;6155077;23;20438;-90
2023/05/30 03:10:40;;;;;;;;;;;16.80;75.30;;;;;;6154743;23;19975;-90
2023/05/30 03:13:05;;;;;;;;;;;16.70;75.20;;;;;;6154163;23;19908;-90
2023/05/30 03:15:31;;;;;;;;;;;16.80;75.40;;;;;;6154202;23;19905;-90
2023/05/30 03:17:57;;;;;;;;;;;16.70;75.30;;;;;;6154603;23;19905;-90
2023/05/30 03:20:23;;;;;;;;;;;16.80;75.40;;;;;;6154312;23;19909;-90
2023/05/30 03:22:49;;;;;;;;;;;16.70;75.30;;;;;;6156495;23;19931;-90
2023/05/30 03:25:14;;;;;;;;;;;16.70;75.30;;;;;;6153378;23;19920;-91
2023/05/30 03:27:40;;;;;;;;;;;16.70;75.30;;;;;;6154669;23;20152;-90
2023/05/30 03:30:06;;;;;;;;;;;16.70;75.30;;;;;;6154281;23;19948;-90
2023/05/30 03:32:31;;;;;;;;;;;16.70;75.40;;;;;;6154602;23;19905;-90
2023/05/30 03:34:57;;;;;;;;;;;16.70;75.50;;;;;;6154253;23;20009;-90
2023/05/30 03:37:23;;;;;;;;;;;16.70;75.50;;;;;;6154456;23;19904;-91
2023/05/30 03:39:48;;;;;;;;;;;16.70;75.40;;;;;;6154395;23;19911;-90
2023/05/30 03:42:14;;;;;;;;;;;16.70;75.40;;;;;;6154322;23;19927;-90
2023/05/30 03:44:39;;;;;;;;;;;16.70;75.40;;;;;;6156078;23;19912;-90
2023/05/30 03:47:05;;;;;;;;;;;16.70;75.50;;;;;;6153937;23;19928;-90
2023/05/30 03:49:30;;;;;;;;;;;16.70;75.60;;;;;;6153578;23;19916;-90
2023/05/30 03:51:56;;;;;;;;;;;16.70;75.50;;;;;;6154162;23;19908;-90
2023/05/30 03:54:21;;;;;;;;;;;16.70;75.60;;;;;;6153769;23;19936;-90
2023/05/30 03:56:47;;;;;;;;;;;16.70;75.60;;;;;;6153074;23;20330;-90
2023/05/30 03:59:13;;;;;;;;;;;16.70;75.70;;;;;;6154116;23;20258;-90
2023/05/30 04:01:39;;;;;;;;;;;16.70;75.60;;;;;;6154099;23;20314;-90
2023/05/30 04:04:04;;;;;;;;;;;16.70;75.50;;;;;;6153873;23;19987;-90
2023/05/30 04:06:30;;;;;;;;;;;16.70;75.70;;;;;;6153803;23;19909;-90
2023/05/30 04:08:55;;;;;;;;;;;16.60;75.70;;;;;;6153634;23;19905;-90
2023/05/30 04:11:21;;;;;;;;;;;16.60;75.70;;;;;;6153505;23;19920;-89
2023/05/30 04:13:46;;;;;;;;;;;16.70;75.80;;;;;;6152772;23;20413;-90
2023/05/30 04:16:12;;;;;;;;;;;16.60;75.80;;;;;;6154123;23;19904;-91
2023/05/30 04:18:43;;;;;;;;;;;16.70;75.80;;;;;;6153714;23;19912;-90
2023/05/30 04:21:15;;;;;;;;;;;16.70;75.80;;;;;;6153650;23;20601;-90
2023/05/30 04:23:40;;;;;;;;;;;16.70;75.90;;;;;;6153119;23;19967;-90
2023/05/30 04:26:09;;;;;;;;;;;16.70;75.90;;;;;;6153593;23;19917;-90
2023/05/30 04:28:36;;;;;;;;;;;16.60;75.90;;;;;;6154809;23;19904;-90
2023/05/30 04:31:04;;;;;;;;;;;16.70;75.90;;;;;;6152852;23;19940;-90
2023/05/30 04:33:34;;;;;;;;;;;16.70;75.90;;;;;;6153719;23;19904;-90
2023/05/30 04:36:05;;;;;;;;;;;16.70;76.00;;;;;;6156129;23;19904;-90
2023/05/30 04:38:34;;;;;;;;;;;16.70;76.30;;;;;;6153916;23;19904;-89
2023/05/30 04:41:03;;;;;;;;;;;16.70;76.10;;;;;;6153320;23;19905;-91
2023/05/30 04:43:34;;;;;;;;;;;16.70;76.10;;;;;;6153670;23;19912;-90
2023/05/30 04:46:00;;;;;;;;;;;16.70;76.10;;;;;;6153455;23;19904;-89
2023/05/30 04:48:28;;;;;;;;;;;16.70;76.10;;;;;;6153204;23;19943;-89
2023/05/30 04:50:54;;;;;;;;;;;16.70;76.10;;;;;;6153917;23;19913;-90
2023/05/30 04:53:20;;;;;;;;;;;16.70;76.10;;;;;;6154005;23;19949;-90
2023/05/30 04:55:46;;;;;;;;;;;16.70;76.10;;;;;;6153570;23;19909;-90
2023/05/30 04:58:15;;;;;;;;;;;16.70;76.20;;;;;;6153325;23;19912;-89
2023/05/30 05:00:41;;;;;;;;;;;16.70;76.20;;;;;;6153570;23;19933;-90
2023/05/30 05:03:06;;;;;;;;;;;16.60;76.10;;;;;;6153690;23;20401;-90
2023/05/30 05:05:32;;;;;;;;;;;16.60;76.10;;;;;;6153877;23;19909;-89
2023/05/30 05:07:58;;;;;;;;;;;16.70;76.10;;;;;;6153896;23;19904;-89
2023/05/30 05:10:24;;;;;;;;;;;16.70;76.20;;;;;;6154333;23;19940;-90
2023/05/30 05:12:49;;;;;;;;;;;16.70;76.20;;;;;;6154978;23;20234;-90
2023/05/30 05:15:15;;;;;;;;;;;16.70;76.20;;;;;;6154850;23;19936;-90
2023/05/30 05:17:40;;;;;;;;;;;16.60;76.20;;;;;;6155458;23;20290;-90
2023/05/30 05:20:07;;;;;;;;;;;16.90;76.30;;;;;;6153551;23;20286;-90
2023/05/30 05:22:32;;;;;;;;;;;16.60;76.10;;;;;;6153584;23;19908;-90
2023/05/30 05:24:58;;;;;;;;;;;16.70;76.10;;;;;;6152872;23;19959;-89
2023/05/30 05:27:25;;;;;;;;;;;16.70;76.20;;;;;;6153722;23;19991;-89
2023/05/30 05:29:50;;;;;;;;;;;16.70;76.20;;;;;;6153265;23;19941;-90
2023/05/30 05:32:16;;;;;;;;;;;16.70;76.20;;;;;;6153272;23;19983;-90
2023/05/30 05:34:41;;;;;;;;;;;16.70;76.20;;;;;;6153975;23;19987;-90
2023/05/30 05:37:07;;;;;;;;;;;16.70;76.20;;;;;;6155498;23;20425;-90
2023/05/30 05:39:32;;;;;;;;;;;16.70;76.20;;;;;;6155245;23;19905;-90
2023/05/30 05:41:58;;;;;;;;;;;16.70;76.20;;;;;;6156618;23;19975;-89
2023/05/30 05:44:23;;;;;;;;;;;16.70;76.20;;;;;;6154954;23;19932;-90
2023/05/30 05:46:49;;;;;;;;;;;16.70;76.10;;;;;;6155443;23;19959;-90
2023/05/30 05:49:14;;;;;;;;;;;16.80;76.20;;;;;;6154450;23;19987;-90
2023/05/30 05:51:40;;;;;;;;;;;16.70;76.10;;;;;;6154792;23;19932;-90
2023/05/30 05:54:05;;;;;;;;;;;16.70;76.10;;;;;;6155415;23;19905;-90
2023/05/30 05:56:31;;;;;;;;;;;16.70;76.00;;;;;;6155239;23;19916;-90
2023/05/30 05:58:56;;;;;;;;;;;16.70;76.00;;;;;;6155124;23;20319;-91
2023/05/30 06:01:22;;;;;;;;;;;16.80;76.10;;;;;;6154235;23;19905;-90
2023/05/30 06:03:48;;;;;;;;;;;16.80;76.10;;;;;;6154909;23;19904;-90
2023/05/30 06:06:13;;;;;;;;;;;16.80;76.10;;;;;;6154658;23;19905;-91
2023/05/30 06:08:39;;;;;;;;;;;16.80;76.20;;;;;;6155266;23;19905;-90
2023/05/30 06:11:04;;;;;;;;;;;16.80;76.20;;;;;;6154693;23;19913;-90
2023/05/30 06:13:30;;;;;;;;;;;16.90;76.30;;;;;;6155738;23;19947;-89
2023/05/30 06:15:55;;;;;;;;;;;16.90;76.20;;;;;;6154306;23;19905;-90
2023/05/30 06:18:21;;;;;;;;;;;16.90;76.10;;;;;;6155179;23;19995;-90
2023/05/30 06:20:46;;;;;;;;;;;16.90;76.00;;;;;;6154954;23;19904;-90
2023/05/30 06:23:12;;;;;;;;;;;16.90;75.90;;;;;;6155231;23;19911;-90
2023/05/30 06:25:37;;;;;;;;;;;16.90;75.90;;;;;;6154630;23;19913;-90
2023/05/30 06:28:03;;;;;;;;;;;17.00;76.00;;;;;;6155098;23;20273;-90
2023/05/30 06:30:28;;;;;;;;;;;17.00;75.90;;;;;;6153989;23;19913;-89
2023/05/30 06:32:54;;;;;;;;;;;17.00;75.80;;;;;;6155230;23;20334;-90
2023/05/30 06:35:20;;;;;;;;;;;17.00;75.80;;;;;;6153973;23;20318;-90
2023/05/30 06:37:45;;;;;;;;;;;17.20;75.90;;;;;;6155578;23;19942;-90
2023/05/30 06:40:11;;;;;;;;;;;17.10;76.20;;;;;;6154805;23;20322;-91
2023/05/30 06:42:36;;;;;;;;;;;17.10;75.70;;;;;;6154700;23;19905;-90
2023/05/30 06:45:02;;;;;;;;;;;17.10;75.70;;;;;;6154613;23;19940;-90
2023/05/30 06:47:27;;;;;;;;;;;17.20;75.70;;;;;;6153901;23;20299;-90
2023/05/30 06:49:53;;;;;;;;;;;17.20;75.50;;;;;;6154975;23;20364;-90
2023/05/30 06:52:18;;;;;;;;;;;17.20;75.40;;;;;;6154781;23;19905;-91
2023/05/30 06:54:45;;;;;;;;;;;17.30;75.40;;;;;;6154543;23;19992;-90
2023/05/30 06:57:11;;;;;;;;;;;17.30;75.30;;;;;;6154138;23;20576;-90
2023/05/30 06:59:37;;;;;;;;;;;17.30;75.20;;;;;;6155143;23;19904;-91
2023/05/30 07:02:02;;;;;;;;;;;17.40;75.20;;;;;;6154970;23;19928;-91
2023/05/30 07:04:28;;;;;;;;;;;17.40;75.10;;;;;;6154403;23;19975;-90
2023/05/30 07:06:53;;;;;;;;;;;17.40;74.90;;;;;;6155525;23;20027;-90
2023/05/30 07:09:19;;;;;;;;;;;17.50;74.80;;;;;;6157634;23;20341;-91
2023/05/30 07:11:45;;;;;;;;;;;17.50;74.70;;;;;;6156084;23;20378;-90
2023/05/30 07:14:11;;;;;;;;;;;17.50;75.40;;;;;;6154554;23;19909;-90
2023/05/30 07:16:37;;;;;;;;;;;17.60;74.40;;;;;;6154565;23;19991;-91
2023/05/30 07:19:02;;;;;;;;;;;17.60;74.40;;;;;;6154751;23;19905;-90
2023/05/30 07:21:29;;;;;;;;;;;17.60;74.20;;;;;;6154404;23;20347;-91
2023/05/30 07:23:55;;;;;;;;;;;17.70;74.10;;;;;;6153566;23;20035;-90
2023/05/30 07:26:21;;;;;;;;;;;17.70;74.00;;;;;;6153750;23;20212;-91
2023/05/30 07:28:46;;;;;;;;;;;17.70;73.90;;;;;;6153974;23;19904;-90
2023/05/30 07:31:12;;;;;;;;;;;17.80;73.90;;;;;;6154709;23;20409;-89
2023/05/30 07:33:37;;;;;;;;;;;17.80;73.80;;;;;;6154599;23;20315;-89
2023/05/30 07:36:03;;;;;;;;;;;17.80;73.70;;;;;;6156356;23;19911;-90
2023/05/30 07:38:28;;;;;;;;;;;17.90;73.60;;;;;;6156016;23;19904;-91
2023/05/30 07:40:54;;;;;;;;;;;17.90;73.50;;;;;;6154353;23;19904;-91
2023/05/30 07:43:19;;;;;;;;;;;17.90;73.50;;;;;;6154814;23;19952;-90
2023/05/30 07:45:45;;;;;;;;;;;18.00;73.30;;;;;;6154063;23;19908;-90
2023/05/30 07:48:11;;;;;;;;;;;18.00;73.30;;;;;;6155458;23;19955;-91
2023/05/30 07:50:36;;;;;;;;;;;18.00;73.20;;;;;;6155820;23;19919;-91
2023/05/30 07:53:02;;;;;;;;;;;18.10;73.10;;;;;;6155111;23;19916;-90
2023/05/30 07:55:27;;;;;;;;;;;18.10;73.00;;;;;;6156618;23;19905;-91
2023/05/30 07:57:53;;;;;;;;;;;18.10;73.00;;;;;;6155624;23;19911;-90
2023/05/30 08:00:18;;;;;;;;;;;18.20;72.90;;;;;;6155713;23;19913;-91
2023/05/30 08:02:44;;;;;;;;;;;18.20;72.80;;;;;;6154979;23;19967;-90
2023/05/30 08:05:09;;;;;;;;;;;18.20;72.70;;;;;;6155101;23;20331;-92
2023/05/30 08:07:35;;;;;;;;;;;18.20;72.50;;;;;;6155518;23;20307;-92
2023/05/30 08:10:01;;;;;;;;;;;18.30;72.50;;;;;;6155575;23;19916;-90
2023/05/30 08:12:28;;;;;;;;;;;18.30;72.40;;;;;;6155461;23;20282;-91
2023/05/30 08:14:55;;;;;;;;;;;18.40;72.30;;;;;;6155071;23;19905;-90
2023/05/30 08:17:21;;;;;;;;;;;18.40;72.30;;;;;;6155402;23;19904;-91
2023/05/30 08:19:46;;;;;;;;;;;18.40;72.10;;;;;;6155487;23;19916;-91
2023/05/30 08:22:12;;;;;;;;;;;18.40;72.00;;;;;;6155680;23;19905;-91
2023/05/30 08:24:38;;;;;;;;;;;18.50;72.00;;;;;;6155277;23;19904;-92
2023/05/30 08:27:04;;;;;;;;;;;18.50;71.80;;;;;;6155414;23;19920;-91
2023/05/30 08:29:30;;;;;;;;;;;18.20;71.60;;;;;;6155073;23;19915;-92
2023/05/30 08:31:55;;;;;;;;;;;18.60;71.70;;;;;;6155764;23;19905;-91
2023/05/30 08:34:24;;;;;;;;;;;18.60;71.70;;;;;;6155252;23;19909;-92
2023/05/30 08:36:51;;;;;;;;;;;18.70;71.60;;;;;;6155206;23;19908;-91
2023/05/30 08:39:17;;;;;;;;;;;18.60;71.30;;;;;;6155432;23;19905;-93
2023/05/30 08:41:42;;;;;;;;;;;18.70;71.40;;;;;;6155730;23;19904;-92
2023/05/30 08:44:08;;;;;;;;;;;18.70;71.40;;;;;;6155041;23;19942;-90
2023/05/30 08:46:35;;;;;;;;;;;18.70;71.40;;;;;;6154219;23;20354;-91
2023/05/30 08:49:01;;;;;;;;;;;18.70;71.40;;;;;;6154740;23;19951;-92
2023/05/30 08:51:29;;;;;;;;;;;18.70;71.30;;;;;;6154999;23;20071;-92
2023/05/30 08:53:56;;;;;;;;;;;18.80;71.40;;;;;;6154425;23;19905;-91
2023/05/30 08:56:42;;;;;;;;;;;18.80;71.30;;;;;;6154355;23;19915;-92
2023/05/30 08:59:09;;;;;;;;;;;18.80;71.30;;;;;;6154000;23;20314;-92
2023/05/30 09:01:37;;;;;;;;;;;18.80;71.00;;;;;;6155005;23;19905;-91
2023/05/30 09:04:05;;;;;;;;;;;18.90;71.00;;;;;;6154519;23;20392;-92
2023/05/30 09:06:31;;;;;;;;;;;18.90;70.90;;;;;;6153912;23;19904;-92
2023/05/30 09:08:57;;;;;;;;;;;18.90;70.60;;;;;;6154871;23;19904;-93
2023/05/30 09:11:23;;;;;;;;;;;19.00;70.50;;;;;;6156290;23;20353;-91
2023/05/30 09:13:48;;;;;;;;;;;19.00;70.60;;;;;;6156359;23;19904;-92
2023/05/30 09:16:17;;;;;;;;;;;19.00;70.40;;;;;;6156520;23;19941;-94
2023/05/30 09:18:42;;;;;;;;;;;19.00;70.40;;;;;;6155985;23;19904;-93
2023/05/30 09:21:08;;;;;;;;;;;19.00;70.30;;;;;;6155911;23;19905;-90
2023/05/30 09:23:34;;;;;;;;;;;19.00;70.20;;;;;;6155634;23;19936;-92
2023/05/30 09:26:04;;;;;;;;;;;19.10;70.10;;;;;;6157290;23;19995;-92
2023/05/30 09:28:31;;;;;;;;;;;19.10;70.10;;;;;;6155554;23;19905;-92
2023/05/30 09:30:58;;;;;;;;;;;19.10;70.10;;;;;;6157156;23;19913;-92
2023/05/30 09:33:24;;;;;;;;;;;19.10;70.10;;;;;;6155967;23;19912;-92
2023/05/30 09:35:53;;;;;;;;;;;19.10;70.80;;;;;;6155508;23;19905;-92
2023/05/30 09:38:22;;;;;;;;;;;19.10;70.00;;;;;;6156639;23;19912;-91
2023/05/30 09:40:48;;;;;;;;;;;19.20;69.90;;;;;;6155894;23;19905;-92
2023/05/30 09:43:14;;;;;;;;;;;19.20;69.80;;;;;;6156147;23;19904;-91
2023/05/30 09:45:39;;;;;;;;;;;19.20;69.90;;;;;;6156199;23;19983;-91
2023/05/30 09:48:05;;;;;;;;;;;19.20;69.70;;;;;;6155103;23;20525;-90
2023/05/30 09:50:30;;;;;;;;;;;19.20;69.60;;;;;;6155346;23;19913;-92
2023/05/30 09:52:56;;;;;;;;;;;19.20;69.60;;;;;;6155736;23;19936;-92
2023/05/30 09:55:23;;;;;;;;;;;19.20;69.60;;;;;;6155202;23;19909;-92
2023/05/30 09:57:50;;;;;;;;;;;19.30;69.70;;;;;;6155270;23;20388;-91
2023/05/30 10:00:16;;;;;;;;;;;19.20;69.50;;;;;;6155300;23;19905;-92
2023/05/30 10:02:53;;;;;;;;;;;19.20;69.50;;;;;;6154114;23;19912;-91
2023/05/30 10:05:20;;;;;;;;;;;19.20;69.50;;;;;;6154863;23;19913;-92
2023/05/30 10:07:46;;;;;;;;;;;19.20;69.60;;;;;;6155427;23;20262;-91
2023/05/30 10:10:13;;;;;;;;;;;19.30;69.60;;;;;;6154663;23;19912;-90
2023/05/30 10:12:39;;;;;;;;;;;19.20;69.60;;;;;;6154467;23;19951;-92
2023/05/30 10:15:06;;;;;;;;;;;19.20;69.60;;;;;;6155102;23;20048;-91
2023/05/30 10:17:36;;;;;;;;;;;19.20;69.60;;;;;;6154735;23;19988;-93
2023/05/30 10:20:06;;;;;;;;;;;19.20;69.60;;;;;;6155245;23;20121;-91
2023/05/30 10:22:39;;;;;;;;;;;19.20;69.60;;;;;;6154267;23;19908;-90
2023/05/30 10:25:05;;;;;;;;;;;19.20;69.60;;;;;;6154525;23;20330;-91
2023/05/30 10:27:31;;;;;;;;;;;19.20;69.70;;;;;;6155304;23;19960;-91
2023/05/30 10:30:04;;;;;;;;;;;19.20;69.80;;;;;;6155011;23;19935;-90
2023/05/30 10:32:32;;;;;;;;;;;19.20;69.70;;;;;;6155075;23;19909;-91
2023/05/30 10:35:04;;;;;;;;;;;19.20;69.80;;;;;;6155116;23;19908;-92
2023/05/30 10:37:29;;;;;;;;;;;19.20;69.80;;;;;;6154995;23;19963;-91
2023/05/30 10:39:55;;;;;;;;;;;19.20;69.90;;;;;;6154904;23;19909;-92
2023/05/30 10:42:27;;;;;;;;;;;19.10;69.90;;;;;;6154651;23;19966;-92
2023/05/30 10:44:55;;;;;;;;;;;19.10;70.60;;;;;;6155387;23;19943;-90
2023/05/30 10:47:37;;;;;;;;;;;19.10;69.90;;;;;;6155051;23;19920;-91
2023/05/30 10:50:07;;;;;;;;;;;19.00;69.90;;;;;;6155279;23;20340;-92
2023/05/30 10:52:33;;;;;;;;;;;19.00;70.20;;;;;;6154858;23;19911;-91
2023/05/30 10:54:58;;;;;;;;;;;19.00;70.30;;;;;;6154822;23;19935;-92
2023/05/30 10:57:26;;;;;;;;;;;19.00;70.50;;;;;;6156740;23;20003;-92
2023/05/30 10:59:58;;;;;;;;;;;19.00;70.20;;;;;;6155123;23;20278;-93
2023/05/30 11:02:44;;;;;;;;;;;18.90;70.20;;;;;;6155037;23;19912;-91
2023/05/30 11:05:10;;;;;;;;;;;19.00;70.30;;;;;;6155732;23;19936;-91
2023/05/30 11:07:37;;;;;;;;;;;19.00;70.50;;;;;;6156337;23;19944;-92
2023/05/30 11:10:05;;;;;;;;;;;18.90;70.60;;;;;;6156035;23;19913;-91
2023/05/30 11:12:30;;;;;;;;;;;18.90;70.70;;;;;;6155990;23;19909;-91
2023/05/30 11:14:59;;;;;;;;;;;18.80;70.70;;;;;;6156395;23;19912;-91
2023/05/30 11:17:32;;;;;;;;;;;18.80;70.80;;;;;;6155851;23;19905;-91
2023/05/30 11:20:19;;;;;;;;;;;18.80;70.90;;;;;;6156030;23;19904;-91
2023/05/30 11:23:02;;;;;;;;;;;18.80;71.00;;;;;;6038778;23;20395;-92
2023/05/30 11:25:29;;;;;;;;;;;18.80;71.00;;;;;;6037607;23;19917;-94
2023/05/30 11:28:04;;;;;;;;;;;18.70;70.90;;;;;;6014945;23;19913;-93
2023/05/30 11:30:34;;;;;;;;;;;18.80;70.90;;;;;;6039299;23;20041;-92
2023/05/30 11:33:00;;;;;;;;;;;18.80;70.90;;;;;;6013780;23;19906;-91
2023/05/30 11:35:27;;;;;;;;;;;18.70;70.80;;;;;;6038207;23;19913;-92
2023/05/30 11:37:54;;;;;;;;;;;18.70;71.00;;;;;;6013617;23;19910;-91
2023/05/30 11:40:23;;;;;;;;;;;18.70;70.90;;;;;;6013398;23;19906;-91
2023/05/30 11:42:54;;;;;;;;;;;18.70;71.20;;;;;;6013202;23;19906;-91
2023/05/30 11:45:26;;;;;;;;;;;18.60;71.30;;;;;;6013303;23;19905;-91
2023/05/30 11:47:52;;;;;;;;;;;18.60;71.30;;;;;;6014461;23;19910;-90
2023/05/30 11:50:18;;;;;;;;;;;18.60;71.30;;;;;;6013549;23;19937;-93
2023/05/30 11:52:44;;;;;;;;;;;18.60;71.30;;;;;;6013549;23;19948;-91
2023/05/30 11:55:09;;;;;;;;;;;18.60;71.50;;;;;;6038476;23;20304;-91
2023/05/30 11:57:35;;;;;;;;;;;18.60;71.50;;;;;;6015466;23;20352;-90
2023/05/30 12:00:01;;;;;;;;;;;18.60;71.50;;;;;;6094704;23;19909;-90
2023/05/30 12:02:30;;;;;;;;;;;18.60;71.50;;;;;;6155980;23;19905;-90
2023/05/30 12:05:01;;;;;;;;;;;18.50;71.50;;;;;;6155341;23;19979;-92
2023/05/30 12:07:26;;;;;;;;;;;18.50;71.50;;;;;;6155742;23;20337;-90
2023/05/30 12:09:52;;;;;;;;;;;18.60;71.70;;;;;;6155187;23;19916;-91
2023/05/30 12:12:17;;;;;;;;;;;18.50;71.60;;;;;;6155451;23;19905;-92
2023/05/30 12:14:55;;;;;;;;;;;18.50;71.50;;;;;;6156790;23;19935;-91
2023/05/30 12:17:21;;;;;;;;;;;18.50;71.60;;;;;;6156301;23;19908;-91
2023/05/30 12:20:06;;;;;;;;;;;18.50;71.30;;;;;;6155747;23;19954;-90
2023/05/30 12:22:32;;;;;;;;;;;18.50;71.50;;;;;;6155919;23;19909;-90
2023/05/30 12:24:57;;;;;;;;;;;18.50;71.50;;;;;;6155749;23;19959;-91
2023/05/30 12:27:25;;;;;;;;;;;18.50;71.70;;;;;;6156286;23;19928;-90
2023/05/30 12:29:50;;;;;;;;;;;18.50;71.50;;;;;;6155699;23;19935;-91
2023/05/30 12:32:25;;;;;;;;;;;18.50;71.60;;;;;;6155976;23;20314;-91
2023/05/30 12:34:52;;;;;;;;;;;18.40;71.40;;;;;;6155928;23;19909;-90
2023/05/30 12:37:18;;;;;;;;;;;18.50;71.40;;;;;;6156154;23;19944;-90
2023/05/30 12:39:49;;;;;;;;;;;18.50;71.40;;;;;;6155295;23;19959;-90
2023/05/30 12:42:18;;;;;;;;;;;18.40;71.30;;;;;;6156001;23;19976;-91
2023/05/30 12:44:48;;;;;;;;;;;18.40;71.20;;;;;;6155468;23;19943;-91
2023/05/30 12:47:14;;;;;;;;;;;18.40;71.20;;;;;;6154962;23;19970;-92
2023/05/30 12:49:40;;;;;;;;;;;18.40;71.20;;;;;;6154765;23;20370;-91
2023/05/30 12:52:06;;;;;;;;;;;18.40;71.20;;;;;;6156241;23;19952;-93
2023/05/30 12:54:32;;;;;;;;;;;18.40;71.30;;;;;;6154954;23;20035;-89
2023/05/30 12:56:58;;;;;;;;;;;18.40;71.40;;;;;;6155559;23;19905;-89
2023/05/30 12:59:23;;;;;;;;;;;18.40;71.50;;;;;;6155339;23;20326;-91
2023/05/30 13:01:49;;;;;;;;;;;18.40;71.20;;;;;;6155248;23;19962;-90
2023/05/30 13:04:15;;;;;;;;;;;18.40;71.30;;;;;;6155257;23;19904;-91
2023/05/30 13:06:40;;;;;;;;;;;18.40;71.20;;;;;;6154112;23;19980;-92
2023/05/30 13:09:06;;;;;;;;;;;18.40;71.20;;;;;;6154689;23;19905;-91
2023/05/30 13:11:32;;;;;;;;;;;18.40;71.10;;;;;;6154617;23;19923;-91
2023/05/30 13:13:57;;;;;;;;;;;18.40;71.30;;;;;;6154881;23;19905;-91
2023/05/30 13:16:23;;;;;;;;;;;18.40;71.20;;;;;;6154513;23;19911;-91
2023/05/30 13:18:48;;;;;;;;;;;18.40;71.20;;;;;;6154140;23;19908;-91
2023/05/30 13:21:14;;;;;;;;;;;18.40;71.30;;;;;;6153437;23;19933;-92
2023/05/30 13:23:39;;;;;;;;;;;18.40;71.20;;;;;;6153900;23;19905;-90
2023/05/30 13:26:05;;;;;;;;;;;18.40;71.20;;;;;;6154897;23;19912;-90
2023/05/30 13:28:31;;;;;;;;;;;18.30;71.00;;;;;;6153544;23;19968;-90
2023/05/30 13:30:57;;;;;;;;;;;18.30;70.90;;;;;;6152810;23;19947;-90
2023/05/30 13:33:24;;;;;;;;;;;18.40;71.20;;;;;;6153451;23;19905;-92
2023/05/30 13:35:50;;;;;;;;;;;18.30;71.10;;;;;;6153636;23;20208;-90
2023/05/30 13:38:15;;;;;;;;;;;18.30;71.10;;;;;;6153807;23;19976;-90
2023/05/30 13:40:41;;;;;;;;;;;18.30;71.10;;;;;;6154247;23;19909;-90
2023/05/30 13:43:06;;;;;;;;;;;18.30;70.90;;;;;;6153749;23;19912;-91
2023/05/30 13:45:32;;;;;;;;;;;18.30;70.60;;;;;;6153005;23;19932;-91
2023/05/30 13:47:57;;;;;;;;;;;18.40;70.60;;;;;;6153839;23;19911;-91
2023/05/30 13:50:23;;;;;;;;;;;18.40;70.70;;;;;;6154070;23;20050;-92
2023/05/30 13:52:49;;;;;;;;;;;18.30;70.90;;;;;;6153729;23;20222;-91
2023/05/30 13:55:15;;;;;;;;;;;18.30;70.80;;;;;;6153134;23;19904;-91
2023/05/30 13:57:40;;;;;;;;;;;18.30;70.70;;;;;;6155054;23;20246;-90
2023/05/30 14:00:06;;;;;;;;;;;18.30;70.80;;;;;;6154776;23;19908;-90
2023/05/30 14:02:32;;;;;;;;;;;18.30;70.70;;;;;;6155131;23;19909;-89
2023/05/30 14:04:57;;;;;;;;;;;18.30;70.60;;;;;;6155421;23;19959;-90
2023/05/30 14:07:24;;;;;;;;;;;18.30;70.70;;;;;;6155639;23;19936;-91
2023/05/30 14:09:50;;;;;;;;;;;18.30;70.60;;;;;;6155697;23;20322;-91
2023/05/30 14:12:15;;;;;;;;;;;18.30;70.70;;;;;;6154854;23;19908;-92
2023/05/30 14:14:41;;;;;;;;;;;18.30;70.60;;;;;;6156716;23;19908;-91